createdAt,value
2019-05-05T00:00:14.370Z,100684.00
2019-05-05T00:03:20.047Z,100678.00
2019-05-05T00:05:54.763Z,100695.00
2019-05-05T00:08:25.544Z,100674.00
2019-05-05T00:11:05.615Z,100676.00
2019-05-05T00:13:47.820Z,100693.00
2019-05-05T00:16:32.340Z,100683.00
2019-05-05T00:19:04.799Z,100682.00
2019-05-05T00:21:36.305Z,100681.00
2019-05-05T00:24:07.431Z,100681.00
2019-05-05T00:26:37.925Z,100684.00
2019-05-05T00:29:08.489Z,100690.00
2019-05-05T00:31:39.258Z,100693.00
2019-05-05T00:34:09.883Z,100682.00
2019-05-05T00:36:40.665Z,100695.00
2019-05-05T00:39:11.614Z,100712.00
2019-05-05T00:41:42.445Z,100707.00
2019-05-05T00:44:15.171Z,100699.00
2019-05-05T00:47:05.296Z,100709.00
2019-05-05T00:49:46.344Z,100713.00
2019-05-05T00:52:09.997Z,100716.00
2019-05-05T00:54:40.772Z,100712.00
2019-05-05T00:57:11.475Z,100718.00
2019-05-05T00:59:42.472Z,100720.00
2019-05-05T01:02:34.540Z,100710.00
2019-05-05T01:05:25.319Z,100709.00
2019-05-05T01:07:56.510Z,100710.00
2019-05-05T01:10:29.258Z,100721.00
2019-05-05T01:12:59.972Z,100716.00
2019-05-05T01:15:30.823Z,100722.00
2019-05-05T01:18:04.584Z,100714.00
2019-05-05T01:20:34.939Z,100716.00
2019-05-05T01:23:06.810Z,100715.00
2019-05-05T01:25:37.841Z,100723.00
2019-05-05T01:28:08.983Z,100727.00
2019-05-05T01:30:41.979Z,100724.00
2019-05-05T01:33:36.878Z,100715.00
2019-05-05T01:36:08.419Z,100720.00
2019-05-05T01:38:58.009Z,100721.00
2019-05-05T01:41:34.819Z,100726.00
2019-05-05T01:44:06.039Z,100727.00
2019-05-05T01:46:39.493Z,100728.00
2019-05-05T01:49:11.165Z,100729.00
2019-05-05T01:51:41.826Z,100734.00
2019-05-05T01:54:14.506Z,100724.00
2019-05-05T01:56:48.398Z,100739.00
2019-05-05T01:59:19.333Z,100730.00
2019-05-05T02:01:49.816Z,100733.00
2019-05-05T02:04:20.611Z,100732.00
2019-05-05T02:06:51.314Z,100736.00
2019-05-05T02:09:24.929Z,100734.00
2019-05-05T02:11:56.789Z,100743.00
2019-05-05T02:14:27.488Z,100725.00
2019-05-05T02:17:01.117Z,100735.00
2019-05-05T02:19:31.800Z,100730.00
2019-05-05T02:22:02.298Z,100733.00
2019-05-05T02:24:34.766Z,100728.00
2019-05-05T02:27:05.791Z,100734.00
2019-05-05T02:29:44.656Z,100749.00
2019-05-05T02:32:26.697Z,100742.00
2019-05-05T02:35:02.679Z,100752.00
2019-05-05T02:37:35.572Z,100751.00
2019-05-05T02:40:07.506Z,100743.00
2019-05-05T02:42:39.318Z,100748.00
2019-05-05T02:45:15.439Z,100754.00
2019-05-05T02:48:05.949Z,100756.00
2019-05-05T02:51:00.722Z,100754.00
2019-05-05T02:53:29.643Z,100767.00
2019-05-05T02:56:05.487Z,100761.00
2019-05-05T02:58:39.167Z,100762.00
2019-05-05T03:01:28.939Z,100764.00
2019-05-05T03:04:03.617Z,100768.00
2019-05-05T03:06:34.272Z,100768.00
2019-05-05T03:09:06.455Z,100773.00
2019-05-05T03:11:37.837Z,100775.00
2019-05-05T03:14:10.681Z,100769.00
2019-05-05T03:16:43.513Z,100765.00
2019-05-05T03:19:14.351Z,100768.00
2019-05-05T03:21:45.043Z,100774.00
2019-05-05T03:24:15.846Z,100777.00
2019-05-05T03:26:46.232Z,100780.00
2019-05-05T03:29:20.229Z,100783.00
2019-05-05T03:31:51.887Z,100782.00
2019-05-05T03:34:24.011Z,100778.00
2019-05-05T03:36:54.446Z,100776.00
2019-05-05T03:39:27.982Z,100781.00
2019-05-05T03:42:24.505Z,100786.00
2019-05-05T03:45:08.268Z,100789.00
2019-05-05T03:47:39.182Z,100800.00
2019-05-05T03:50:10.114Z,100797.00
2019-05-05T03:52:43.349Z,100792.00
2019-05-05T03:55:14.712Z,100794.00
2019-05-05T03:57:45.648Z,100802.00
2019-05-05T04:00:24.771Z,100802.00
2019-05-05T04:03:00.552Z,100808.00
2019-05-05T04:05:38.561Z,100804.00
2019-05-05T04:08:10.789Z,100814.00
2019-05-05T04:10:45.562Z,100815.00
2019-05-05T04:13:16.980Z,100814.00
2019-05-05T04:16:06.711Z,100812.00
2019-05-05T04:18:43.967Z,100816.00
2019-05-05T04:21:14.828Z,100818.00
2019-05-05T04:23:45.728Z,100818.00
2019-05-05T04:26:16.556Z,100831.00
2019-05-05T04:28:47.866Z,100823.00
2019-05-05T04:31:18.585Z,100831.00
2019-05-05T04:33:49.681Z,100839.00
2019-05-05T04:36:23.031Z,100836.00
2019-05-05T04:38:54.662Z,100846.00
2019-05-05T04:41:25.627Z,100845.00
2019-05-05T04:43:56.624Z,100846.00
2019-05-05T04:46:27.883Z,100847.00
2019-05-05T04:49:18.024Z,100853.00
2019-05-05T04:51:50.585Z,100857.00
2019-05-05T04:54:25.964Z,100848.00
2019-05-05T04:56:58.072Z,100863.00
2019-05-05T04:59:28.880Z,100860.00
2019-05-05T05:02:03.998Z,100858.00
2019-05-05T05:04:53.595Z,100847.00
2019-05-05T05:07:24.354Z,100857.00
2019-05-05T05:09:55.206Z,100857.00
2019-05-05T05:12:26.022Z,100869.00
2019-05-05T05:14:57.070Z,100864.00
2019-05-05T05:17:34.698Z,100861.00
2019-05-05T05:20:06.087Z,100877.00
2019-05-05T05:22:36.749Z,100875.00
2019-05-05T05:25:08.615Z,100883.00
2019-05-05T05:27:39.899Z,100884.00
2019-05-05T05:30:13.563Z,100885.00
2019-05-05T05:32:44.560Z,100897.00
2019-05-05T05:35:15.986Z,100890.00
2019-05-05T05:37:46.743Z,100897.00
2019-05-05T05:40:44.296Z,100896.00
2019-05-05T05:43:19.892Z,100894.00
2019-05-05T05:46:00.553Z,100900.00
2019-05-05T05:48:50.166Z,100906.00
2019-05-05T05:51:23.810Z,100917.00
2019-05-05T05:53:54.872Z,100907.00
2019-05-05T05:56:25.876Z,100915.00
2019-05-05T05:58:56.590Z,100917.00
2019-05-05T06:01:27.504Z,100912.00
2019-05-05T06:03:58.302Z,100915.00
2019-05-05T06:06:29.120Z,100923.00
2019-05-05T06:08:59.997Z,100932.00
2019-05-05T06:11:30.844Z,100938.00
2019-05-05T06:14:01.341Z,100930.00
2019-05-05T06:16:33.981Z,100930.00
2019-05-05T06:19:04.770Z,100933.00
2019-05-05T06:21:37.154Z,100931.00
2019-05-05T06:24:07.758Z,100938.00
2019-05-05T06:26:38.774Z,100954.00
2019-05-05T06:29:10.048Z,100941.00
2019-05-05T06:31:41.358Z,100944.00
2019-05-05T06:34:13.952Z,100946.00
2019-05-05T06:36:44.660Z,100939.00
2019-05-05T06:39:15.059Z,100945.00
2019-05-05T06:42:04.465Z,100940.00
2019-05-05T06:44:54.031Z,100953.00
2019-05-05T06:47:28.155Z,100953.00
2019-05-05T06:49:58.855Z,100954.00
2019-05-05T06:52:41.945Z,100953.00
2019-05-05T06:55:03.618Z,100958.00
2019-05-05T06:57:37.435Z,100953.00
2019-05-05T07:00:08.262Z,100959.00
2019-05-05T07:02:38.959Z,100962.00
2019-05-05T07:05:09.759Z,100964.00
2019-05-05T07:07:40.244Z,100969.00
2019-05-05T07:10:11.214Z,100968.00
2019-05-05T07:12:43.807Z,100980.00
2019-05-05T07:15:16.604Z,100990.00
2019-05-05T07:17:47.239Z,100989.00
2019-05-05T07:20:17.876Z,100974.00
2019-05-05T07:22:58.676Z,100977.00
2019-05-05T07:25:20.573Z,100984.00
2019-05-05T07:27:51.269Z,100976.00
2019-05-05T07:30:24.190Z,100973.00
2019-05-05T07:32:54.273Z,100989.00
2019-05-05T07:35:55.334Z,100981.00
2019-05-05T07:38:17.882Z,100985.00
2019-05-05T07:40:48.696Z,100984.00
2019-05-05T07:43:19.554Z,100988.00
2019-05-05T07:45:50.279Z,100977.00
2019-05-05T07:48:21.623Z,100968.00
2019-05-05T07:51:02.118Z,100981.00
2019-05-05T07:53:25.445Z,100978.00
2019-05-05T07:55:56.078Z,100983.00
2019-05-05T07:58:26.546Z,100966.00
2019-05-05T08:00:57.265Z,100970.00
2019-05-05T08:03:28.103Z,100972.00
2019-05-05T08:05:58.877Z,100979.00
2019-05-05T08:08:29.483Z,100974.00
2019-05-05T08:11:00.282Z,100974.00
2019-05-05T08:13:33.501Z,100971.00
2019-05-05T08:16:05.491Z,100973.00
2019-05-05T08:18:54.357Z,100979.00
2019-05-05T08:21:25.740Z,100978.00
2019-05-05T08:24:24.436Z,100977.00
2019-05-05T08:27:14.436Z,100971.00
2019-05-05T08:29:49.720Z,100987.00
2019-05-05T08:32:35.015Z,100973.00
2019-05-05T08:35:04.742Z,100972.00
2019-05-05T08:37:35.478Z,100980.00
2019-05-05T08:40:07.144Z,101002.00
2019-05-05T08:42:37.798Z,100993.00
2019-05-05T08:45:11.038Z,100985.00
2019-05-05T08:47:43.533Z,100984.00
2019-05-05T08:50:14.161Z,101000.00
2019-05-05T08:52:45.147Z,100998.00
2019-05-05T08:55:16.126Z,100991.00
2019-05-05T08:57:46.699Z,100997.00
2019-05-05T09:00:18.899Z,100996.00
2019-05-05T09:02:49.529Z,100991.00
2019-05-05T09:05:20.298Z,101002.00
2019-05-05T09:07:50.781Z,101003.00
2019-05-05T09:10:23.553Z,100999.00
2019-05-05T09:12:54.374Z,100999.00
2019-05-05T09:15:25.449Z,100999.00
2019-05-05T09:17:56.137Z,100993.00
2019-05-05T09:20:26.715Z,101000.00
2019-05-05T09:22:57.556Z,100994.00
2019-05-05T09:25:41.379Z,100995.00
2019-05-05T09:28:34.147Z,101012.00
2019-05-05T09:31:05.265Z,101003.00
2019-05-05T09:33:36.184Z,101002.00
2019-05-05T09:36:06.724Z,101003.00
2019-05-05T09:38:37.615Z,101000.00
2019-05-05T09:41:08.302Z,101005.00
2019-05-05T09:43:39.084Z,101010.00
2019-05-05T09:46:09.826Z,100997.00
2019-05-05T09:48:40.420Z,101005.00
2019-05-05T09:51:13.689Z,101009.00
2019-05-05T09:53:44.942Z,101015.00
2019-05-05T09:56:16.262Z,101002.00
2019-05-05T09:58:46.700Z,100998.00
2019-05-05T10:01:17.264Z,101012.00
2019-05-05T10:03:48.108Z,101005.00
2019-05-05T10:06:18.792Z,101014.00
2019-05-05T10:08:49.222Z,101012.00
2019-05-05T10:11:20.467Z,101013.00
2019-05-05T10:13:51.202Z,101019.00
2019-05-05T10:16:23.490Z,101025.00
2019-05-05T10:18:56.732Z,101015.00
2019-05-05T10:21:27.632Z,101017.00
2019-05-05T10:24:00.447Z,101026.00
2019-05-05T10:26:31.175Z,101012.00
2019-05-05T10:29:01.728Z,101023.00
2019-05-05T10:31:34.501Z,101012.00
2019-05-05T10:34:07.237Z,101019.00
2019-05-05T10:36:38.097Z,101029.00
2019-05-05T10:39:14.829Z,101030.00
2019-05-05T10:41:45.815Z,101025.00
2019-05-05T10:44:16.756Z,101024.00
2019-05-05T10:46:47.846Z,101004.00
2019-05-05T10:49:19.145Z,101000.00
2019-05-05T10:51:49.822Z,101012.00
2019-05-05T10:54:20.608Z,101002.00
2019-05-05T10:56:51.445Z,100998.00
2019-05-05T10:59:23.802Z,101001.00
2019-05-05T11:01:57.186Z,101003.00
2019-05-05T11:04:28.151Z,100999.00
2019-05-05T11:06:59.135Z,101006.00
2019-05-05T11:09:30.218Z,101008.00
2019-05-05T11:12:01.444Z,101008.00
2019-05-05T11:14:33.847Z,101009.00
2019-05-05T11:17:04.710Z,101017.00
2019-05-05T11:19:35.588Z,101020.00
2019-05-05T11:22:06.697Z,101016.00
2019-05-05T11:24:38.361Z,101015.00
2019-05-05T11:27:09.174Z,101010.00
2019-05-05T11:29:58.819Z,101014.00
2019-05-05T11:32:57.414Z,101007.00
2019-05-05T11:35:44.405Z,101003.00
2019-05-05T11:38:15.513Z,101014.00
2019-05-05T11:40:47.983Z,101008.00
2019-05-05T11:43:18.893Z,100999.00
2019-05-05T11:45:49.852Z,100995.00
2019-05-05T11:48:20.562Z,101007.00
2019-05-05T11:50:53.801Z,101005.00
2019-05-05T11:53:27.305Z,101006.00
2019-05-05T11:55:58.169Z,101024.00
2019-05-05T11:58:29.192Z,101010.00
2019-05-05T12:00:59.822Z,101019.00
2019-05-05T12:03:30.676Z,101007.00
2019-05-05T12:06:01.344Z,101001.00
2019-05-05T12:08:34.306Z,101011.00
2019-05-05T12:11:06.060Z,101006.00
2019-05-05T12:13:36.889Z,101014.00
2019-05-05T12:16:09.576Z,101012.00
2019-05-05T12:18:40.513Z,101001.00
2019-05-05T12:21:13.861Z,101018.00
2019-05-05T12:23:44.571Z,101013.00
2019-05-05T12:26:29.619Z,101011.00
2019-05-05T12:29:03.326Z,101013.00
2019-05-05T12:31:34.902Z,101007.00
2019-05-05T12:34:06.177Z,101018.00
2019-05-05T12:36:37.000Z,101007.00
2019-05-05T12:39:14.197Z,101014.00
2019-05-05T12:41:45.336Z,101009.00
2019-05-05T12:44:23.629Z,100999.00
2019-05-05T12:47:14.404Z,101008.00
2019-05-05T12:49:45.361Z,101000.00
2019-05-05T12:52:16.381Z,101006.00
2019-05-05T12:54:49.288Z,100999.00
2019-05-05T12:57:20.296Z,101002.00
2019-05-05T12:59:51.246Z,101002.00
2019-05-05T13:02:23.547Z,101014.00
2019-05-05T13:04:54.117Z,101006.00
2019-05-05T13:07:24.972Z,101011.00
2019-05-05T13:09:55.687Z,101013.00
2019-05-05T13:12:26.236Z,101015.00
2019-05-05T13:14:57.193Z,101009.00
2019-05-05T13:17:27.909Z,101014.00
2019-05-05T13:20:07.972Z,101017.00
2019-05-05T13:22:48.946Z,101005.00
2019-05-05T13:25:34.175Z,101013.00
2019-05-05T13:28:06.741Z,101005.00
2019-05-05T13:30:37.683Z,101002.00
2019-05-05T13:33:08.537Z,101007.00
2019-05-05T13:35:39.235Z,101010.00
2019-05-05T13:38:09.952Z,101006.00
2019-05-05T13:40:40.903Z,101010.00
2019-05-05T13:43:11.622Z,101001.00
2019-05-05T13:46:17.596Z,100995.00
2019-05-05T13:48:48.246Z,100994.00
2019-05-05T13:51:19.415Z,101003.00
2019-05-05T13:53:51.374Z,101008.00
2019-05-05T13:56:24.579Z,101009.00
2019-05-05T13:58:55.800Z,100998.00
2019-05-05T14:01:27.326Z,101002.00
2019-05-05T14:03:58.706Z,100993.00
2019-05-05T14:06:29.371Z,100992.00
2019-05-05T14:09:01.428Z,101005.00
2019-05-05T14:11:33.942Z,101015.00
2019-05-05T14:14:05.558Z,100998.00
2019-05-05T14:16:37.345Z,101006.00
2019-05-05T14:19:08.651Z,101001.00
2019-05-05T14:21:39.625Z,101014.00
2019-05-05T14:24:27.871Z,101027.00
2019-05-05T14:26:58.984Z,101027.00
2019-05-05T14:29:44.665Z,101030.00
2019-05-05T14:32:19.118Z,101035.00
2019-05-05T14:34:58.743Z,101039.00
2019-05-05T14:37:41.546Z,101046.00
2019-05-05T14:40:13.281Z,101033.00
2019-05-05T14:42:44.620Z,101032.00
2019-05-05T14:45:15.949Z,101032.00
2019-05-05T14:47:46.786Z,101030.00
2019-05-05T14:50:18.094Z,101038.00
2019-05-05T14:52:49.616Z,101024.00
2019-05-05T14:55:25.450Z,101028.00
2019-05-05T14:57:56.222Z,101021.00
2019-05-05T15:00:30.381Z,101029.00
2019-05-05T15:03:03.651Z,101024.00
2019-05-05T15:05:44.266Z,101022.00
2019-05-05T15:08:31.001Z,101020.00
2019-05-05T15:11:15.177Z,101033.00
2019-05-05T15:13:49.282Z,101014.00
2019-05-05T15:16:20.626Z,101027.00
2019-05-05T15:18:52.015Z,101021.00
2019-05-05T15:21:23.637Z,101018.00
2019-05-05T15:23:58.969Z,101010.00
2019-05-05T15:26:29.997Z,101019.00
2019-05-05T15:29:01.745Z,101009.00
2019-05-05T15:31:34.206Z,101013.00
2019-05-05T15:34:05.163Z,101006.00
2019-05-05T15:36:36.187Z,101008.00
2019-05-05T15:39:08.820Z,101010.00
2019-05-05T15:41:41.901Z,101001.00
2019-05-05T15:44:13.664Z,100991.00
2019-05-05T15:46:44.743Z,101008.00
2019-05-05T15:49:15.890Z,101004.00
2019-05-05T15:51:46.714Z,100999.00
2019-05-05T15:54:17.752Z,100995.00
2019-05-05T15:56:48.778Z,101007.00
2019-05-05T15:59:20.967Z,100993.00
2019-05-05T16:01:54.957Z,101008.00
2019-05-05T16:04:26.466Z,101005.00
2019-05-05T16:07:00.588Z,101012.00
2019-05-05T16:09:31.426Z,101016.00
2019-05-05T16:12:03.771Z,101011.00
2019-05-05T16:14:37.240Z,101012.00
2019-05-05T16:17:25.528Z,101020.00
2019-05-05T16:20:04.419Z,101012.00
2019-05-05T16:22:54.214Z,101010.00
2019-05-05T16:25:25.892Z,101015.00
2019-05-05T16:27:57.316Z,101010.00
2019-05-05T16:30:28.957Z,101017.00
2019-05-05T16:33:00.445Z,101018.00
2019-05-05T16:35:34.162Z,101018.00
2019-05-05T16:38:06.544Z,101015.00
2019-05-05T16:40:37.410Z,101016.00
2019-05-05T16:43:08.342Z,101015.00
2019-05-05T16:45:39.847Z,101018.00
2019-05-05T16:48:10.771Z,101008.00
2019-05-05T16:50:43.916Z,101013.00
2019-05-05T16:53:34.281Z,100999.00
2019-05-05T16:56:06.373Z,101003.00
2019-05-05T16:58:38.189Z,101009.00
2019-05-05T17:01:14.347Z,101015.00
2019-05-05T17:03:46.066Z,101009.00
2019-05-05T17:06:18.322Z,101008.00
2019-05-05T17:08:49.343Z,101011.00
2019-05-05T17:11:20.182Z,101007.00
2019-05-05T17:13:56.496Z,101016.00
2019-05-05T17:16:50.984Z,101013.00
2019-05-05T17:19:28.506Z,101021.00
2019-05-05T17:22:27.020Z,101022.00
2019-05-05T17:24:59.354Z,101011.00
2019-05-05T17:27:30.986Z,101020.00
2019-05-05T17:30:04.477Z,101022.00
2019-05-05T17:32:35.823Z,101016.00
2019-05-05T17:35:07.304Z,101017.00
2019-05-05T17:37:38.722Z,101020.00
2019-05-05T17:40:18.700Z,101028.00
2019-05-05T17:43:24.370Z,101016.00
2019-05-05T17:46:19.265Z,101029.00
2019-05-05T17:49:07.957Z,101036.00
2019-05-05T17:51:46.360Z,101036.00
2019-05-05T17:54:39.129Z,101036.00
2019-05-05T17:57:10.665Z,101030.00
2019-05-05T17:59:44.964Z,101034.00
2019-05-05T18:02:16.468Z,101025.00
2019-05-05T18:04:47.752Z,101030.00
2019-05-05T18:07:35.801Z,101036.00
2019-05-05T18:10:15.917Z,101043.00
2019-05-05T18:13:12.039Z,101036.00
2019-05-05T18:16:04.435Z,101035.00
2019-05-05T18:18:37.159Z,101034.00
2019-05-05T18:21:07.997Z,101034.00
2019-05-05T18:23:39.750Z,101036.00
2019-05-05T18:26:10.685Z,101047.00
2019-05-05T18:28:44.466Z,101046.00
2019-05-05T18:31:16.002Z,101055.00
2019-05-05T18:33:47.259Z,101060.00
2019-05-05T18:36:18.217Z,101070.00
2019-05-05T18:38:49.015Z,101067.00
2019-05-05T18:41:34.426Z,101056.00
2019-05-05T18:44:19.333Z,101059.00
2019-05-05T18:47:11.762Z,101063.00
2019-05-05T18:49:41.413Z,101067.00
2019-05-05T18:52:13.795Z,101067.00
2019-05-05T18:54:44.151Z,101075.00
2019-05-05T18:57:16.120Z,101069.00
2019-05-05T18:59:46.442Z,101077.00
2019-05-05T19:02:27.538Z,101079.00
2019-05-05T19:05:14.145Z,101071.00
2019-05-05T19:07:55.819Z,101079.00
2019-05-05T19:10:24.327Z,101079.00
2019-05-05T19:12:55.017Z,101081.00
2019-05-05T19:15:25.486Z,101081.00
2019-05-05T19:17:55.855Z,101087.00
2019-05-05T19:20:45.024Z,101090.00
2019-05-05T19:23:16.761Z,101093.00
2019-05-05T19:25:47.120Z,101090.00
2019-05-05T19:28:17.922Z,101087.00
2019-05-05T19:30:48.310Z,101108.00
2019-05-05T19:33:18.696Z,101093.00
2019-05-05T19:35:49.136Z,101103.00
2019-05-05T19:38:19.747Z,101101.00
2019-05-05T19:40:50.300Z,101110.00
2019-05-05T19:43:20.716Z,101100.00
2019-05-05T19:45:51.204Z,101108.00
2019-05-05T19:48:24.351Z,101112.00
2019-05-05T19:51:14.140Z,101116.00
2019-05-05T19:53:44.901Z,101120.00
2019-05-05T19:56:15.854Z,101122.00
2019-05-05T19:58:58.334Z,101115.00
2019-05-05T20:01:32.148Z,101117.00
2019-05-05T20:03:51.420Z,101108.00
2019-05-05T20:06:23.709Z,101112.00
2019-05-05T20:08:54.363Z,101126.00
2019-05-05T20:11:24.821Z,101117.00
2019-05-05T20:14:06.678Z,101117.00
2019-05-05T20:16:38.474Z,101121.00
2019-05-05T20:19:09.018Z,101114.00
2019-05-05T20:21:39.566Z,101123.00
2019-05-05T20:24:09.984Z,101124.00
2019-05-05T20:26:40.483Z,101123.00
2019-05-05T20:29:14.390Z,101120.00
2019-05-05T20:31:43.215Z,101123.00
2019-05-05T20:34:31.369Z,101128.00
2019-05-05T20:37:15.664Z,101130.00
2019-05-05T20:39:46.084Z,101127.00
2019-05-05T20:42:16.569Z,101131.00
2019-05-05T20:44:46.988Z,101130.00
2019-05-05T20:47:17.419Z,101133.00
2019-05-05T20:49:47.809Z,101129.00
2019-05-05T20:52:18.220Z,101131.00
2019-05-05T20:54:48.639Z,101127.00
2019-05-05T20:57:19.225Z,101141.00
2019-05-05T20:59:49.789Z,101145.00
2019-05-05T21:02:20.213Z,101151.00
2019-05-05T21:04:50.763Z,101146.00
2019-05-05T21:07:25.843Z,101150.00
2019-05-05T21:09:53.349Z,101142.00
2019-05-05T21:12:24.612Z,101150.00
2019-05-05T21:14:57.654Z,101141.00
2019-05-05T21:17:28.259Z,101139.00
2019-05-05T21:19:59.002Z,101146.00
2019-05-05T21:22:39.228Z,101135.00
2019-05-05T21:25:24.470Z,101145.00
2019-05-05T21:27:54.830Z,101143.00
2019-05-05T21:30:25.320Z,101149.00
2019-05-05T21:32:55.756Z,101144.00
2019-05-05T21:35:27.664Z,101148.00
2019-05-05T21:37:58.137Z,101147.00
2019-05-05T21:40:28.877Z,101134.00
2019-05-05T21:42:59.550Z,101143.00
2019-05-05T21:45:34.710Z,101146.00
2019-05-05T21:48:05.478Z,101152.00
2019-05-05T21:50:40.756Z,101154.00
2019-05-05T21:53:26.644Z,101146.00
2019-05-05T21:56:09.841Z,101166.00
2019-05-05T21:58:43.949Z,101151.00
2019-05-05T22:01:17.316Z,101159.00
2019-05-05T22:03:50.427Z,101161.00
2019-05-05T22:06:21.513Z,101147.00
2019-05-05T22:08:53.685Z,101153.00
2019-05-05T22:11:24.407Z,101146.00
2019-05-05T22:13:56.693Z,101148.00
2019-05-05T22:16:28.679Z,101147.00
2019-05-05T22:18:59.363Z,101138.00
2019-05-05T22:21:37.569Z,101150.00
2019-05-05T22:24:23.685Z,101137.00
2019-05-05T22:26:54.382Z,101148.00
2019-05-05T22:29:25.418Z,101143.00
2019-05-05T22:31:56.058Z,101131.00
2019-05-05T22:34:26.670Z,101145.00
2019-05-05T22:36:57.579Z,101145.00
2019-05-05T22:39:29.156Z,101142.00
2019-05-05T22:41:59.749Z,101143.00
2019-05-05T22:44:30.290Z,101150.00
2019-05-05T22:47:00.911Z,101151.00
2019-05-05T22:49:31.358Z,101152.00
2019-05-05T22:52:04.328Z,101150.00
2019-05-05T22:54:34.919Z,101150.00
2019-05-05T22:57:05.878Z,101154.00
2019-05-05T22:59:36.505Z,101156.00
2019-05-05T23:02:07.307Z,101154.00
2019-05-05T23:04:45.166Z,101146.00
2019-05-05T23:07:25.900Z,101145.00
2019-05-05T23:09:56.849Z,101141.00
2019-05-05T23:12:27.349Z,101134.00
2019-05-05T23:14:58.229Z,101144.00
2019-05-05T23:17:46.669Z,101134.00
2019-05-05T23:21:03.669Z,101146.00
2019-05-05T23:23:44.183Z,101143.00
2019-05-05T23:26:16.565Z,101137.00
2019-05-05T23:28:47.177Z,101135.00
2019-05-05T23:31:17.607Z,101137.00
2019-05-05T23:33:49.023Z,101139.00
2019-05-05T23:36:19.425Z,101127.00
2019-05-05T23:38:51.618Z,101137.00
2019-05-05T23:41:23.877Z,101136.00
2019-05-05T23:43:54.619Z,101120.00
2019-05-05T23:46:25.219Z,101127.00
2019-05-05T23:48:57.318Z,101130.00
2019-05-05T23:51:27.769Z,101130.00
2019-05-05T23:53:58.852Z,101127.00
2019-05-05T23:56:29.708Z,101117.00
2019-05-05T23:59:00.444Z,101126.00
